Impacts TAF Board
For situational awareness. Not to be used for flight planning purposes.
IDs:

KMGM - Montgomery/Dannely F, AL, US

Issued at 0636 UTC 24 Jan 2019
Updated at 0713 UTC 24 Jan 2019
Potential Impact None Slight Moderate High
Time0653Z 24/08Z 24/09Z 24/10Z 24/11Z 24/12Z 24/13Z 24/14Z 24/15Z 24/16Z 24/17Z 24/18Z 24/19Z 24/20Z>>
Type OBS PRVL PRVL PRVL PRVL PRVL PRVL PRVL PRVL PRVL PRVL PRVL PRVL PRVL
VIS 4 >6 >6 >6 >6 >6 >6 >6 >6 >6 >6 >6 >6 >6
CIG 5 5 5 5 5 15 15 15 25 25 25 -- -- --
Cover OVC OVC OVC OVC OVC OVC OVC OVC BKN BKN BKN SCT SCT SCT
FltCat IFR IFR IFR IFR IFR MVFR MVFR MVFR MVFR MVFR MVFR VFR VFR VFR
WX BR -- -- -- -- -- -- -- -- -- -- -- -- --
WDir 280 280 280 280 280 300 300 300 310 310 310 310 310 310
WSpd 16 15 15 15 15 10 10 10 10 10 10 9 9 9
WGst 21 25 25 25 25 -- -- -- -- -- -- -- -- --
Raw TAF
KMGM 240636Z 2407/2506 28015G25KT P6SM OVC005
  FM241200 30010KT P6SM OVC015
  FM241500 31010KT P6SM BKN025
  FM241800 31009KT P6SM SCT030


Raw METAR
KMGM 240653Z AUTO 28016G21KT 4SM BR OVC005 09/08 A2984 RMK AO2 RAB0555E49 SLP101 P0003 T00890083 TSNO
KMGM 240607Z AUTO 27015G22KT 4SM RA BR OVC005 11/10 A2984 RMK AO2 RAB0555 CIG 003V010 P0002 T01110100 TSNO
KMGM 240553Z AUTO 23008KT 10SM BKN003 BKN028 OVC034 13/12 A2981 RMK AO2 RAB01E15B31E48 PRESRR SLP094 P0000 60069 T01280122 10139 20128 402110128 53000 TSNO
KMGM 240547Z AUTO 24006KT 10SM -RA BKN004 BKN028 OVC034 13/12 A2980 RMK AO2 RAB01E15B31 P0000 TSNO
KMGM 240453Z AUTO 21006KT 10SM FEW002 SCT090 BKN110 13/12 A2982 RMK AO2 PRESRR SLP094 T01280122 TSNO
KMGM 240436Z 24007KT 10SM FEW002 BKN070 13/12 A2979 RMK AO2 T01280122

METAR Board
Radar Display
Forecast Discussion
For situational awareness. Not to be used for flight planning purposes.